ARW weather

Arad International Airport
Arad, Arad, Romania

Public forecast

Using degrees Celsius for public forecast. Weather courtesy of forecast.io.

METAR (pilot weather report)

Retrieved 2019/06/19 08:30 UTC (0 seconds ago):

LRAR 190830Z VRB04KT 9999 SCT026 27/21 Q1014

TAF (pilot weather forecast)

Forecast is more than 12 hours old.

Retrieved 2012/12/05 09:33 UTC (7 years ago):

TAF TAF LRAR 050800Z 0509/0521 VRB04KT 3000 -SN BR BKN005 OVC010 TEMPO 0509/0513 1500 SN BKN002 OVC005 BECMG 0513/0515 5000 -SN BKN010 OVC025